createdAt,value
2023-03-31T00:01:11.577Z,99.90
2023-03-31T00:03:44.482Z,99.90
2023-03-31T00:06:18.983Z,99.90
2023-03-31T00:08:52.336Z,99.90
2023-03-31T00:11:21.839Z,99.90
2023-03-31T00:13:51.597Z,99.90
2023-03-31T00:16:20.142Z,99.90
2023-03-31T00:18:51.010Z,99.90
2023-03-31T00:21:33.742Z,99.90
2023-03-31T00:24:04.017Z,99.90
2023-03-31T00:26:33.045Z,99.90
2023-03-31T00:29:04.033Z,99.90
2023-03-31T00:31:32.640Z,99.90
2023-03-31T00:34:02.324Z,99.90
2023-03-31T00:36:31.189Z,99.90
2023-03-31T00:39:02.669Z,99.90
2023-03-31T00:41:31.607Z,99.90
2023-03-31T00:44:14.188Z,99.90
2023-03-31T00:46:48.286Z,99.90
2023-03-31T00:49:21.988Z,99.90
2023-03-31T00:51:52.661Z,99.90
2023-03-31T00:54:23.487Z,99.90
2023-03-31T00:56:55.702Z,99.90
2023-03-31T00:59:29.010Z,99.90
2023-03-31T01:02:02.907Z,99.90
2023-03-31T01:04:36.314Z,99.90
2023-03-31T01:07:12.505Z,99.90
2023-03-31T01:09:42.116Z,99.90
2023-03-31T01:12:11.832Z,99.90
2023-03-31T01:14:41.610Z,99.90
2023-03-31T01:17:10.627Z,99.90
2023-03-31T01:19:54.592Z,99.90
2023-03-31T01:22:51.687Z,99.90
2023-03-31T01:25:55.501Z,99.90
2023-03-31T01:28:32.502Z,99.90
2023-03-31T01:31:28.253Z,99.90
2023-03-31T01:34:29.776Z,99.90
2023-03-31T01:37:31.624Z,99.90
2023-03-31T01:40:26.398Z,99.90
2023-03-31T01:42:59.216Z,99.90
2023-03-31T01:45:37.522Z,99.90
2023-03-31T01:48:14.463Z,99.90
2023-03-31T01:50:48.582Z,99.90
2023-03-31T01:53:24.212Z,99.90
2023-03-31T01:56:02.318Z,99.90
2023-03-31T01:58:38.037Z,99.90
2023-03-31T02:01:13.613Z,99.90
2023-03-31T02:03:47.016Z,99.90
2023-03-31T02:06:21.853Z,99.90
2023-03-31T02:08:55.612Z,99.90
2023-03-31T02:11:26.987Z,99.90
2023-03-31T02:13:56.736Z,99.90
2023-03-31T02:16:27.965Z,99.90
2023-03-31T02:19:02.443Z,99.90
2023-03-31T02:21:33.689Z,99.90
2023-03-31T02:24:06.349Z,99.90
2023-03-31T02:26:41.181Z,99.90
2023-03-31T02:29:10.075Z,99.90
2023-03-31T02:31:47.782Z,99.90
2023-03-31T02:34:16.327Z,99.90
2023-03-31T02:36:45.714Z,99.90
2023-03-31T02:39:17.992Z,99.90
2023-03-31T02:41:47.931Z,99.90
2023-03-31T02:44:18.250Z,99.90
2023-03-31T02:46:47.335Z,99.90
2023-03-31T02:49:17.597Z,99.90
2023-03-31T02:52:12.363Z,99.90
2023-03-31T02:55:12.797Z,99.90
2023-03-31T02:58:12.546Z,99.90
2023-03-31T03:01:03.910Z,99.90
2023-03-31T03:03:41.657Z,99.90
2023-03-31T03:06:19.730Z,99.90
2023-03-31T03:09:05.195Z,99.90
2023-03-31T03:11:46.172Z,99.90
2023-03-31T03:14:23.784Z,99.90
2023-03-31T03:16:59.050Z,99.90
2023-03-31T03:19:27.724Z,99.90
2023-03-31T03:21:56.120Z,99.90
2023-03-31T03:24:29.368Z,99.90
2023-03-31T03:26:58.615Z,99.90
2023-03-31T03:29:28.814Z,99.90
2023-03-31T03:31:57.360Z,99.90
2023-03-31T03:34:27.032Z,99.90
2023-03-31T03:36:55.386Z,99.90
2023-03-31T03:39:23.858Z,99.90
2023-03-31T03:41:52.148Z,99.90
2023-03-31T03:44:20.750Z,99.90
2023-03-31T03:46:50.469Z,99.90
2023-03-31T03:49:18.940Z,99.90
2023-03-31T03:51:47.412Z,99.90
2023-03-31T03:54:15.784Z,99.90
2023-03-31T03:56:44.135Z,99.90
2023-03-31T03:59:12.624Z,99.90
2023-03-31T04:01:40.942Z,99.90
2023-03-31T04:04:10.761Z,99.90
2023-03-31T04:06:39.148Z,99.90
2023-03-31T04:09:07.700Z,99.90
2023-03-31T04:11:36.350Z,99.90
2023-03-31T04:14:04.680Z,99.90
2023-03-31T04:16:34.764Z,99.90
2023-03-31T04:19:05.218Z,99.90
2023-03-31T04:21:35.915Z,99.90
2023-03-31T04:24:04.931Z,99.90
2023-03-31T04:26:43.272Z,99.90
2023-03-31T04:29:13.906Z,99.90
2023-03-31T04:31:44.145Z,99.90
2023-03-31T04:34:14.607Z,99.90
2023-03-31T04:36:48.320Z,99.90
2023-03-31T04:39:17.929Z,99.90
2023-03-31T04:41:46.546Z,99.90
2023-03-31T04:44:14.950Z,99.90
2023-03-31T04:46:43.253Z,99.90
2023-03-31T04:49:11.560Z,99.90
2023-03-31T04:51:39.846Z,99.90
2023-03-31T04:54:09.637Z,99.90
2023-03-31T04:56:37.938Z,99.90
2023-03-31T04:59:06.734Z,99.90
2023-03-31T05:01:36.604Z,99.90
2023-03-31T05:04:05.927Z,99.90
2023-03-31T05:06:34.418Z,99.90
2023-03-31T05:09:02.895Z,99.90
2023-03-31T05:11:32.770Z,99.90
2023-03-31T05:14:01.095Z,99.90
2023-03-31T05:16:29.568Z,99.90
2023-03-31T05:18:58.003Z,99.90
2023-03-31T05:21:27.357Z,99.90
2023-03-31T05:23:55.694Z,99.90
2023-03-31T05:26:25.474Z,99.90
2023-03-31T05:28:55.421Z,99.90
2023-03-31T05:31:24.046Z,99.90
2023-03-31T05:33:52.601Z,99.90
2023-03-31T05:36:23.683Z,99.90
2023-03-31T05:38:52.577Z,99.90
2023-03-31T05:41:21.294Z,99.90
2023-03-31T05:43:49.788Z,99.90
2023-03-31T05:46:19.614Z,99.90
2023-03-31T05:48:48.108Z,99.90
2023-03-31T05:51:16.520Z,99.90
2023-03-31T05:53:45.218Z,99.90
2023-03-31T05:56:13.834Z,99.90
2023-03-31T05:58:42.099Z,99.90
2023-03-31T06:01:13.083Z,99.90
2023-03-31T06:03:43.875Z,99.90
2023-03-31T06:06:13.278Z,99.90
2023-03-31T06:08:41.703Z,99.90
2023-03-31T06:11:12.647Z,99.90
2023-03-31T06:13:41.791Z,99.90
2023-03-31T06:16:12.442Z,99.90
2023-03-31T06:18:42.882Z,99.90
2023-03-31T06:21:13.995Z,99.90
2023-03-31T06:23:44.421Z,99.90
2023-03-31T06:26:17.098Z,99.90
2023-03-31T06:28:46.195Z,99.90
2023-03-31T06:31:17.588Z,99.90
2023-03-31T06:33:47.315Z,99.90
2023-03-31T06:36:17.699Z,99.90
2023-03-31T06:38:46.892Z,99.90
2023-03-31T06:41:17.566Z,99.90
2023-03-31T06:43:46.667Z,99.90
2023-03-31T06:46:15.774Z,99.90
2023-03-31T06:48:44.240Z,99.90
2023-03-31T06:51:14.397Z,99.90
2023-03-31T06:53:42.697Z,99.90
2023-03-31T06:56:11.202Z,99.90
2023-03-31T06:58:39.660Z,99.90
2023-03-31T07:01:08.584Z,99.90
2023-03-31T07:03:37.450Z,99.90
2023-03-31T07:06:06.033Z,99.90
2023-03-31T07:08:36.399Z,99.90
2023-03-31T07:11:05.251Z,99.90
2023-03-31T07:13:33.882Z,99.90
2023-03-31T07:16:02.202Z,99.90
2023-03-31T07:18:35.498Z,99.90
2023-03-31T07:21:07.270Z,99.90
2023-03-31T07:23:39.675Z,99.90
2023-03-31T07:26:08.725Z,99.90
2023-03-31T07:28:37.011Z,99.90
2023-03-31T07:31:12.399Z,99.90
2023-03-31T07:33:41.075Z,99.90
2023-03-31T07:36:13.323Z,99.90
2023-03-31T07:38:45.806Z,99.90
2023-03-31T07:41:15.693Z,99.90
2023-03-31T07:43:45.254Z,99.90
2023-03-31T07:46:18.851Z,99.90
2023-03-31T07:48:48.032Z,99.90
2023-03-31T07:51:17.375Z,99.90
2023-03-31T07:53:47.122Z,99.90
2023-03-31T07:56:17.025Z,99.90
2023-03-31T07:58:45.816Z,99.90
2023-03-31T08:01:17.909Z,99.90
2023-03-31T08:03:47.487Z,99.90
2023-03-31T08:06:19.472Z,99.90
2023-03-31T08:08:49.362Z,99.90
2023-03-31T08:11:17.850Z,99.90
2023-03-31T08:13:46.107Z,99.90
2023-03-31T08:16:14.677Z,99.90
2023-03-31T08:18:43.045Z,99.90
2023-03-31T08:21:11.563Z,99.90
2023-03-31T08:23:40.089Z,96.20
2023-03-31T08:26:13.962Z,99.90
2023-03-31T08:28:44.033Z,93.20
2023-03-31T08:31:12.885Z,90.60
2023-03-31T08:33:41.194Z,95.70
2023-03-31T08:36:11.125Z,95.50
2023-03-31T08:38:41.714Z,96.90
2023-03-31T08:41:25.669Z,97.40
2023-03-31T08:43:56.197Z,99.90
2023-03-31T08:46:26.074Z,99.90
2023-03-31T08:48:56.863Z,99.90
2023-03-31T08:51:29.704Z,99.90
2023-03-31T08:54:03.095Z,99.90
2023-03-31T08:56:37.974Z,99.90
2023-03-31T08:59:07.103Z,99.90
2023-03-31T09:01:54.613Z,99.90
2023-03-31T09:04:44.801Z,99.90
2023-03-31T09:07:20.218Z,99.90
2023-03-31T09:09:54.550Z,99.90
2023-03-31T09:12:31.677Z,99.90
2023-03-31T09:15:03.031Z,99.90
2023-03-31T09:17:34.991Z,99.90
2023-03-31T09:20:08.604Z,99.90
2023-03-31T09:22:42.565Z,99.90
2023-03-31T09:25:16.237Z,99.90
2023-03-31T09:27:47.753Z,99.90
2023-03-31T09:30:21.385Z,99.90
2023-03-31T09:32:52.815Z,99.90
2023-03-31T09:35:23.077Z,99.90
2023-03-31T09:37:53.868Z,99.90
2023-03-31T09:40:28.675Z,99.90
2023-03-31T09:43:02.164Z,99.90
2023-03-31T09:45:31.590Z,99.90
2023-03-31T09:48:03.678Z,99.90
2023-03-31T09:50:34.524Z,99.90
2023-03-31T09:53:05.669Z,99.90
2023-03-31T09:55:43.181Z,99.90
2023-03-31T09:58:17.179Z,99.90
2023-03-31T10:00:59.086Z,99.90
2023-03-31T10:03:29.681Z,99.90
2023-03-31T10:05:59.901Z,99.90
2023-03-31T10:08:31.847Z,99.90
2023-03-31T10:11:11.402Z,99.90
2023-03-31T10:13:47.635Z,99.90
2023-03-31T10:16:22.636Z,99.90
2023-03-31T10:18:51.338Z,99.90
2023-03-31T10:21:23.620Z,99.90
2023-03-31T10:23:52.976Z,99.90
2023-03-31T10:26:23.198Z,99.90
2023-03-31T10:28:55.310Z,99.90
2023-03-31T10:31:27.595Z,99.90
2023-03-31T10:33:58.506Z,99.90
2023-03-31T10:36:29.521Z,99.90
2023-03-31T10:38:58.647Z,99.90
2023-03-31T10:41:30.266Z,99.90
2023-03-31T10:44:01.303Z,99.90
2023-03-31T10:46:44.235Z,99.90
2023-03-31T10:49:26.744Z,99.90
2023-03-31T10:51:57.618Z,99.90
2023-03-31T10:54:26.743Z,99.90
2023-03-31T10:56:57.695Z,99.90
2023-03-31T10:59:41.243Z,99.90
2023-03-31T11:02:36.880Z,99.90
2023-03-31T11:05:14.322Z,99.90
2023-03-31T11:07:55.302Z,99.90
2023-03-31T11:10:48.738Z,99.90
2023-03-31T11:13:22.677Z,99.90
2023-03-31T11:16:01.518Z,99.90
2023-03-31T11:18:41.989Z,99.90
2023-03-31T11:21:21.640Z,99.90
2023-03-31T11:23:56.300Z,99.90
2023-03-31T11:26:33.676Z,99.90
2023-03-31T11:29:16.424Z,99.90
2023-03-31T11:31:55.846Z,99.90
2023-03-31T11:34:44.533Z,99.90
2023-03-31T11:37:47.126Z,99.90
2023-03-31T11:40:31.433Z,99.90
2023-03-31T11:43:04.386Z,99.90
2023-03-31T11:45:38.873Z,99.90
2023-03-31T11:48:17.512Z,99.90
2023-03-31T11:50:48.721Z,99.90
2023-03-31T11:53:20.995Z,99.90
2023-03-31T11:55:54.125Z,99.90
2023-03-31T11:58:25.465Z,99.90
2023-03-31T12:00:58.271Z,99.90
2023-03-31T12:03:43.755Z,99.90
2023-03-31T12:06:18.962Z,99.90
2023-03-31T12:08:56.322Z,99.90
2023-03-31T12:11:33.582Z,99.90
2023-03-31T12:14:16.573Z,99.90
2023-03-31T12:16:47.859Z,99.90
2023-03-31T12:19:23.516Z,99.90
2023-03-31T12:21:55.564Z,99.90
2023-03-31T12:24:23.889Z,99.90
2023-03-31T12:27:03.872Z,99.90
2023-03-31T12:29:35.887Z,99.90
2023-03-31T12:32:08.878Z,99.90
2023-03-31T12:34:43.821Z,99.90
2023-03-31T12:37:54.930Z,99.90
2023-03-31T12:40:44.186Z,99.90
2023-03-31T12:43:44.621Z,99.90
2023-03-31T12:46:25.435Z,99.90
2023-03-31T12:49:09.570Z,99.90
2023-03-31T12:51:59.359Z,99.90
2023-03-31T12:54:53.232Z,99.90
2023-03-31T12:57:26.686Z,99.90
2023-03-31T13:00:21.099Z,99.90
2023-03-31T13:02:50.110Z,99.90
2023-03-31T13:05:47.325Z,99.90
2023-03-31T13:08:49.186Z,99.90
2023-03-31T13:11:19.294Z,99.90
2023-03-31T13:16:42.657Z,99.90
2023-03-31T13:19:13.623Z,99.90
2023-03-31T13:21:56.760Z,99.90
2023-03-31T13:24:26.163Z,99.90
2023-03-31T13:26:57.655Z,99.90
2023-03-31T13:29:28.723Z,99.90
2023-03-31T13:32:23.112Z,99.90
2023-03-31T13:35:01.144Z,99.90
2023-03-31T13:37:46.563Z,99.90
2023-03-31T13:40:39.068Z,99.90
2023-03-31T13:43:29.613Z,99.90
2023-03-31T13:46:25.111Z,99.90
2023-03-31T13:49:02.198Z,99.90
2023-03-31T13:51:47.219Z,99.90
2023-03-31T13:55:01.033Z,99.90
2023-03-31T13:58:11.480Z,99.90
2023-03-31T14:01:13.050Z,99.90
2023-03-31T14:03:59.998Z,99.90
2023-03-31T14:06:34.940Z,99.90
2023-03-31T14:09:07.754Z,99.90
2023-03-31T14:11:36.023Z,99.90
2023-03-31T14:14:07.623Z,99.90
2023-03-31T14:16:40.109Z,99.90
2023-03-31T14:19:38.253Z,99.90
2023-03-31T14:22:20.672Z,99.90
2023-03-31T14:24:56.454Z,99.90
2023-03-31T14:27:43.716Z,99.90
2023-03-31T14:30:21.342Z,99.90
2023-03-31T14:33:04.281Z,99.90
2023-03-31T14:35:38.903Z,99.90
2023-03-31T14:38:17.392Z,99.90
2023-03-31T14:40:48.967Z,99.90
2023-03-31T14:43:22.678Z,99.90
2023-03-31T14:46:02.220Z,99.90
2023-03-31T14:48:34.586Z,99.90
2023-03-31T14:51:04.541Z,99.90
2023-03-31T14:53:32.874Z,99.90
2023-03-31T14:56:08.505Z,99.90
2023-03-31T14:58:41.274Z,99.90
2023-03-31T15:01:11.708Z,99.90
2023-03-31T15:03:43.336Z,99.90
2023-03-31T15:06:12.513Z,99.90
2023-03-31T15:08:41.506Z,99.90
2023-03-31T15:11:20.911Z,99.90
2023-03-31T15:14:04.344Z,99.90
2023-03-31T15:16:37.895Z,99.90
2023-03-31T15:19:15.189Z,99.90
2023-03-31T15:21:47.466Z,99.90
2023-03-31T15:24:16.284Z,99.90
2023-03-31T15:26:51.072Z,99.90
2023-03-31T15:29:23.319Z,99.90
2023-03-31T15:31:54.842Z,99.90
2023-03-31T15:34:28.992Z,99.90
2023-03-31T15:36:57.976Z,99.90
2023-03-31T15:39:27.646Z,99.90
2023-03-31T15:41:57.503Z,99.90
2023-03-31T15:44:44.817Z,99.90
2023-03-31T15:47:19.443Z,99.90
2023-03-31T15:49:55.461Z,99.90
2023-03-31T15:52:30.562Z,99.90
2023-03-31T15:54:59.179Z,99.90
2023-03-31T15:57:34.939Z,99.90
2023-03-31T16:00:07.112Z,99.90
2023-03-31T16:02:43.378Z,99.90
2023-03-31T16:05:37.308Z,99.90
2023-03-31T16:08:17.476Z,99.90
2023-03-31T16:10:46.065Z,99.90
2023-03-31T16:13:23.185Z,99.90
2023-03-31T16:15:54.601Z,99.90
2023-03-31T16:18:29.719Z,99.90
2023-03-31T16:21:02.744Z,99.90
2023-03-31T16:23:33.827Z,99.90
2023-03-31T16:26:03.048Z,99.90
2023-03-31T16:28:34.452Z,99.90
2023-03-31T16:31:03.195Z,99.90
2023-03-31T16:33:32.904Z,99.90
2023-03-31T16:36:04.133Z,99.90
2023-03-31T16:38:32.598Z,99.90
2023-03-31T16:41:01.262Z,99.90
2023-03-31T16:43:30.690Z,99.90
2023-03-31T16:46:01.186Z,99.90
2023-03-31T16:48:31.927Z,99.90
2023-03-31T16:51:02.328Z,99.90
2023-03-31T16:53:34.575Z,99.90
2023-03-31T16:56:03.387Z,99.90
2023-03-31T16:58:34.703Z,99.90
2023-03-31T17:01:06.038Z,99.90
2023-03-31T17:03:34.998Z,99.90
2023-03-31T17:06:09.864Z,99.90
2023-03-31T17:08:40.089Z,99.90
2023-03-31T17:11:11.044Z,99.90
2023-03-31T17:13:39.645Z,99.90
2023-03-31T17:16:16.418Z,99.90
2023-03-31T17:18:47.315Z,99.90
2023-03-31T17:21:18.409Z,99.90
2023-03-31T17:23:51.322Z,99.90
2023-03-31T17:26:22.566Z,99.90
2023-03-31T17:28:50.808Z,99.90
2023-03-31T17:31:21.119Z,99.90
2023-03-31T17:33:49.816Z,99.90
2023-03-31T17:36:18.678Z,99.90
2023-03-31T17:38:50.828Z,99.90
2023-03-31T17:41:19.305Z,99.90
2023-03-31T17:43:48.889Z,99.90
2023-03-31T17:46:18.950Z,99.90
2023-03-31T17:48:47.644Z,99.90
2023-03-31T17:51:17.487Z,99.90
2023-03-31T17:53:53.167Z,99.90
2023-03-31T17:56:24.370Z,99.90
2023-03-31T17:58:55.678Z,99.90
2023-03-31T18:01:24.039Z,99.90
2023-03-31T18:03:52.454Z,99.90
2023-03-31T18:06:23.240Z,99.90
2023-03-31T18:08:53.086Z,99.90
2023-03-31T18:14:16.131Z,99.90
2023-03-31T18:16:44.569Z,99.90
2023-03-31T18:19:22.608Z,99.90
2023-03-31T18:21:53.747Z,99.90
2023-03-31T18:24:24.090Z,99.90
2023-03-31T18:26:52.371Z,99.90
2023-03-31T18:29:20.837Z,99.90
2023-03-31T18:31:49.151Z,99.90
2023-03-31T18:34:20.496Z,99.90
2023-03-31T18:36:48.961Z,99.90
2023-03-31T18:39:17.747Z,99.90
2023-03-31T18:41:49.512Z,99.90
2023-03-31T18:44:17.796Z,99.90
2023-03-31T18:46:49.996Z,99.90
2023-03-31T18:49:25.468Z,99.90
2023-03-31T18:51:53.787Z,99.90
2023-03-31T18:54:22.637Z,99.90
2023-03-31T18:56:52.312Z,99.90
2023-03-31T18:59:21.024Z,99.90
2023-03-31T19:01:49.329Z,99.90
2023-03-31T19:04:17.727Z,99.90
2023-03-31T19:06:46.080Z,99.90
2023-03-31T19:09:14.423Z,99.90
2023-03-31T19:11:45.595Z,99.90
2023-03-31T19:14:18.162Z,99.90
2023-03-31T19:16:46.783Z,99.90
2023-03-31T19:19:15.092Z,99.90
2023-03-31T19:21:44.643Z,99.90
2023-03-31T19:24:13.275Z,99.90
2023-03-31T19:26:41.565Z,99.90
2023-03-31T19:29:14.062Z,99.90
2023-03-31T19:31:47.639Z,99.90
2023-03-31T19:34:16.730Z,99.90
2023-03-31T19:36:48.158Z,99.90
2023-03-31T19:39:16.786Z,99.90
2023-03-31T19:41:45.051Z,99.90
2023-03-31T19:44:17.594Z,99.90
2023-03-31T19:46:48.350Z,99.90
2023-03-31T19:49:16.766Z,99.90
2023-03-31T19:51:47.824Z,99.90
2023-03-31T19:54:16.385Z,99.90
2023-03-31T19:56:44.707Z,99.90
2023-03-31T19:59:17.964Z,99.90
2023-03-31T20:01:46.413Z,99.90
2023-03-31T20:04:18.199Z,99.90
2023-03-31T20:06:48.276Z,99.90
2023-03-31T20:09:17.374Z,99.90
2023-03-31T20:11:55.433Z,99.90
2023-03-31T20:14:25.396Z,99.90
2023-03-31T20:16:53.752Z,99.90
2023-03-31T20:19:23.340Z,99.90
2023-03-31T20:21:58.042Z,99.90
2023-03-31T20:24:27.403Z,99.90
2023-03-31T20:27:04.779Z,99.90
2023-03-31T20:29:37.225Z,99.90
2023-03-31T20:32:05.874Z,99.90
2023-03-31T20:34:34.175Z,99.90
2023-03-31T20:37:03.301Z,99.90
2023-03-31T20:39:31.902Z,99.90
2023-03-31T20:42:00.210Z,99.90
2023-03-31T20:44:28.577Z,99.90
2023-03-31T20:46:59.099Z,99.90
2023-03-31T20:49:27.668Z,99.90
2023-03-31T20:51:56.582Z,99.90
2023-03-31T20:54:24.940Z,99.90
2023-03-31T20:56:53.240Z,99.90
2023-03-31T20:59:22.213Z,99.90
2023-03-31T21:01:50.520Z,99.90
2023-03-31T21:04:21.017Z,99.90
2023-03-31T21:06:54.088Z,99.90
2023-03-31T21:09:23.975Z,99.90
2023-03-31T21:11:52.960Z,99.90
2023-03-31T21:14:21.884Z,99.90
2023-03-31T21:16:50.174Z,99.90
2023-03-31T21:19:22.725Z,99.90
2023-03-31T21:21:51.077Z,99.90
2023-03-31T21:24:19.427Z,99.90
2023-03-31T21:26:47.866Z,99.90
2023-03-31T21:29:16.203Z,99.90
2023-03-31T21:31:45.986Z,99.90
2023-03-31T21:34:14.337Z,99.90
2023-03-31T21:36:44.125Z,99.90
2023-03-31T21:39:12.385Z,99.90
2023-03-31T21:41:41.603Z,99.90
2023-03-31T21:44:10.079Z,99.90
2023-03-31T21:46:39.536Z,99.90
2023-03-31T21:49:08.136Z,99.90
2023-03-31T21:51:36.426Z,99.90
2023-03-31T21:54:09.198Z,99.90
2023-03-31T21:56:37.830Z,99.90
2023-03-31T21:59:06.149Z,99.90
2023-03-31T22:01:34.592Z,99.90
2023-03-31T22:04:02.981Z,99.90
2023-03-31T22:06:31.712Z,99.90
2023-03-31T22:08:59.946Z,99.90
2023-03-31T22:11:29.824Z,99.90
2023-03-31T22:13:58.231Z,99.90
2023-03-31T22:16:26.930Z,99.90
2023-03-31T22:18:57.175Z,99.90
2023-03-31T22:21:27.207Z,99.90
2023-03-31T22:23:56.938Z,99.90
2023-03-31T22:26:27.096Z,99.90
2023-03-31T22:28:57.410Z,99.90
2023-03-31T22:31:26.340Z,99.90
2023-03-31T22:33:54.874Z,99.90
2023-03-31T22:36:23.253Z,99.90
2023-03-31T22:38:51.485Z,99.90
2023-03-31T22:41:19.799Z,99.90
2023-03-31T22:43:48.050Z,99.90
2023-03-31T22:46:18.015Z,99.90
2023-03-31T22:48:50.447Z,99.90
2023-03-31T22:51:19.231Z,99.90
2023-03-31T22:53:52.049Z,99.90
2023-03-31T22:56:21.071Z,99.90
2023-03-31T22:58:49.665Z,99.90
2023-03-31T23:01:22.077Z,99.90
2023-03-31T23:03:50.957Z,99.90
2023-03-31T23:06:19.849Z,99.90
2023-03-31T23:08:49.678Z,99.90
2023-03-31T23:11:18.757Z,99.90
2023-03-31T23:13:47.889Z,99.90
2023-03-31T23:16:20.946Z,99.90
2023-03-31T23:18:50.081Z,99.90
2023-03-31T23:21:21.629Z,99.90
2023-03-31T23:23:51.905Z,99.90
2023-03-31T23:26:20.430Z,99.90
2023-03-31T23:28:49.911Z,99.90
2023-03-31T23:31:21.416Z,99.90
2023-03-31T23:33:50.222Z,99.90
2023-03-31T23:36:21.034Z,99.90
2023-03-31T23:38:50.575Z,99.90
2023-03-31T23:41:22.764Z,99.90
2023-03-31T23:43:51.915Z,99.90
2023-03-31T23:46:21.815Z,99.90
2023-03-31T23:48:50.332Z,99.90
2023-03-31T23:51:19.134Z,99.90
2023-03-31T23:53:47.483Z,99.90
2023-03-31T23:56:17.115Z,99.90
2023-03-31T23:58:47.182Z,99.90
